Time;durP1;ratioP1;P1;durP2;ratioP2;P2;SDS_P1;SDS_P2;PMS_P1;PMS_P2;Temp;Humidity;BMP_temperature;BMP_pressure;BME280_temperature;BME280_humidity;BME280_pressure;Samples;Min_cycle;Max_cycle;Signal;HPM_P1;HPM_P2
2022/01/15 00:00:06;;;;;;;53.27;36.80;;;1.20;99.90;;;;;;4972589;28;20489;-66
2022/01/15 00:02:31;;;;;;;45.57;32.77;;;1.20;99.90;;;;;;4972656;28;20195;-66
2022/01/15 00:04:57;;;;;;;41.37;30.50;;;1.10;99.90;;;;;;4975123;28;20822;-66
2022/01/15 00:07:22;;;;;;;32.70;26.53;;;1.10;99.90;;;;;;4973734;28;20184;-66
2022/01/15 00:09:50;;;;;;;35.83;25.43;;;1.20;99.90;;;;;;4974015;28;20570;-66
2022/01/15 00:12:16;;;;;;;33.30;25.17;;;1.20;99.90;;;;;;4974057;28;20192;-67
2022/01/15 00:14:42;;;;;;;33.07;23.97;;;1.20;99.90;;;;;;4978822;28;20474;-66
2022/01/15 00:17:19;;;;;;;31.60;24.33;;;1.10;99.90;;;;;;4977823;28;20446;-66
2022/01/15 00:19:46;;;;;;;32.00;23.83;;;1.10;99.90;;;;;;4973976;28;20435;-66
2022/01/15 00:22:16;;;;;;;33.77;24.63;;;1.10;99.90;;;;;;4973281;28;20459;-66
2022/01/15 00:24:43;;;;;;;28.50;23.93;;;1.10;99.90;;;;;;4969447;28;20451;-66
2022/01/15 00:27:10;;;;;;;30.73;24.33;;;1.10;99.90;;;;;;4964140;28;20804;-66
2022/01/15 00:29:36;;;;;;;31.90;25.13;;;1.10;99.90;;;;;;4973606;28;20458;-66
2022/01/15 00:32:03;;;;;;;29.83;22.73;;;1.10;99.90;;;;;;4973409;28;20889;-66
2022/01/15 00:34:28;;;;;;;28.37;22.77;;;1.00;99.90;;;;;;4973151;28;20972;-66
2022/01/15 00:36:54;;;;;;;32.20;24.90;;;1.00;99.90;;;;;;4973210;28;20445;-66
2022/01/15 00:39:20;;;;;;;35.80;24.90;;;1.00;99.90;;;;;;4972130;28;20331;-66
2022/01/15 00:41:46;;;;;;;31.70;25.60;;;1.00;99.90;;;;;;4973576;28;20250;-66
2022/01/15 00:44:11;;;;;;;35.83;26.57;;;1.00;99.90;;;;;;4973300;28;20192;-66
2022/01/15 00:46:37;;;;;;;31.60;24.40;;;1.10;99.90;;;;;;4973080;28;20553;-66
2022/01/15 00:49:03;;;;;;;30.40;23.50;;;1.10;99.90;;;;;;4973233;28;20179;-66
2022/01/15 00:51:29;;;;;;;28.90;21.37;;;1.10;99.90;;;;;;4973311;28;20562;-66
2022/01/15 00:53:54;;;;;;;25.60;21.27;;;1.10;99.90;;;;;;4973190;28;20447;-66
2022/01/15 00:56:20;;;;;;;29.70;22.80;;;1.10;99.90;;;;;;4972901;28;20696;-66
2022/01/15 00:58:45;;;;;;;28.07;21.87;;;1.10;99.90;;;;;;4973047;28;20575;-66
2022/01/15 01:01:11;;;;;;;32.77;24.20;;;1.10;99.90;;;;;;4972714;28;20231;-66
2022/01/15 01:03:36;;;;;;;29.13;21.63;;;1.10;99.90;;;;;;4972875;28;20263;-66
2022/01/15 01:06:02;;;;;;;28.60;20.87;;;1.10;99.90;;;;;;4972953;28;20192;-66
2022/01/15 01:08:28;;;;;;;26.10;20.73;;;1.10;99.90;;;;;;4973084;28;20192;-66
2022/01/15 01:10:57;;;;;;;29.70;22.00;;;1.10;99.90;;;;;;4973067;28;20215;-66
2022/01/15 01:20:03;;;;;;;30.30;23.43;;;1.10;99.90;;;;;;4972874;28;20172;-66
2022/01/15 01:24:24;;;;;;;34.03;23.57;;;0.90;99.90;;;;;;4972836;28;20464;-66
2022/01/15 01:27:03;;;;;;;30.43;21.70;;;0.90;99.90;;;;;;4972746;28;20432;-66
2022/01/15 01:34:28;;;;;;;31.07;22.57;;;0.80;99.90;;;;;;4973135;28;20204;-66
2022/01/15 01:37:14;;;;;;;30.53;22.77;;;0.80;99.90;;;;;;4972240;28;20539;-66
2022/01/15 01:39:49;;;;;;;26.50;21.77;;;0.80;99.90;;;;;;4964106;28;20431;-66
2022/01/15 01:45:12;;;;;;;31.97;21.90;;;0.80;99.90;;;;;;4972969;28;20439;-66
2022/01/15 01:47:42;;;;;;;28.23;21.70;;;0.70;99.90;;;;;;4972732;28;20442;-66
2022/01/15 01:50:20;;;;;;;29.67;23.30;;;0.60;99.90;;;;;;4972529;28;20436;-66
2022/01/15 01:52:47;;;;;;;25.63;21.67;;;0.60;99.90;;;;;;4971579;28;20471;-66
2022/01/15 01:55:14;;;;;;;30.80;23.20;;;0.60;99.90;;;;;;4972150;28;20458;-66
2022/01/15 01:57:40;;;;;;;27.70;22.50;;;0.50;99.90;;;;;;4972529;28;20432;-66
2022/01/15 02:00:13;;;;;;;30.50;22.53;;;0.40;99.90;;;;;;4972664;28;20427;-66
2022/01/15 02:02:38;;;;;;;30.57;23.90;;;0.30;99.90;;;;;;4972308;28;21075;-66
2022/01/15 02:05:04;;;;;;;29.73;22.73;;;0.40;99.90;;;;;;4972123;28;20435;-66
2022/01/15 02:07:30;;;;;;;29.23;22.77;;;0.40;99.90;;;;;;4972580;28;20185;-66
2022/01/15 02:09:57;;;;;;;27.80;21.87;;;0.40;99.90;;;;;;4972661;28;20817;-66
2022/01/15 02:12:23;;;;;;;32.53;22.07;;;0.40;99.90;;;;;;4972454;28;20247;-66
2022/01/15 02:14:49;;;;;;;27.70;21.47;;;0.40;99.90;;;;;;4972179;28;20459;-66
2022/01/15 02:17:21;;;;;;;28.80;23.00;;;0.40;99.90;;;;;;4972463;28;20506;-66
2022/01/15 02:20:09;;;;;;;31.53;24.03;;;0.40;99.90;;;;;;4972409;28;20173;-66
2022/01/15 02:25:16;;;;;;;27.97;24.27;;;0.40;99.90;;;;;;4972178;28;20430;-66
2022/01/15 02:27:42;;;;;;;32.27;22.87;;;0.30;99.90;;;;;;4974921;28;20435;-66
2022/01/15 02:30:08;;;;;;;31.73;24.07;;;0.30;99.90;;;;;;4975578;28;20173;-66
2022/01/15 02:32:35;;;;;;;34.67;25.97;;;0.20;99.90;;;;;;4975646;28;20653;-66
2022/01/15 02:35:02;;;;;;;32.10;23.20;;;0.20;99.90;;;;;;4975429;28;20465;-66
2022/01/15 02:37:28;;;;;;;36.33;24.80;;;0.20;99.90;;;;;;4975583;28;20474;-66
2022/01/15 02:39:55;;;;;;;26.37;23.50;;;0.20;99.90;;;;;;4975592;28;20861;-66
2022/01/15 02:42:21;;;;;;;30.30;22.00;;;0.20;99.90;;;;;;4975679;28;20447;-66
2022/01/15 02:44:46;;;;;;;31.00;23.53;;;0.20;99.90;;;;;;4975676;28;20440;-66
2022/01/15 02:49:56;;;;;;;25.77;22.43;;;0.20;99.90;;;;;;4975431;28;20222;-66
2022/01/15 02:52:22;;;;;;;28.80;24.20;;;0.10;99.90;;;;;;4975710;28;20802;-66
2022/01/15 02:54:47;;;;;;;35.47;23.30;;;0.10;99.90;;;;;;4974921;28;20559;-66
2022/01/15 02:57:13;;;;;;;26.67;22.77;;;0.10;99.90;;;;;;4975330;28;20188;-66
2022/01/15 02:59:39;;;;;;;24.97;21.87;;;0.20;99.90;;;;;;4975208;28;20176;-66
2022/01/15 03:02:05;;;;;;;34.10;22.27;;;0.10;99.90;;;;;;4975139;28;20590;-66
2022/01/15 03:04:30;;;;;;;31.10;22.67;;;0.10;99.90;;;;;;4975418;28;20444;-66
2022/01/15 03:06:56;;;;;;;26.53;22.20;;;0.10;99.90;;;;;;4974999;28;20191;-66
2022/01/15 03:09:21;;;;;;;32.40;23.27;;;0.20;99.90;;;;;;4975339;28;20248;-66
2022/01/15 03:11:47;;;;;;;31.40;24.80;;;0.10;99.90;;;;;;4974914;28;20744;-66
2022/01/15 03:14:13;;;;;;;27.80;23.00;;;0.20;99.90;;;;;;4975173;28;20176;-66
2022/01/15 03:16:39;;;;;;;29.33;21.70;;;0.10;99.90;;;;;;4974334;28;20180;-66
2022/01/15 03:19:05;;;;;;;26.67;20.63;;;0.10;99.90;;;;;;4974861;28;20443;-66
2022/01/15 03:21:30;;;;;;;27.80;21.67;;;0.10;99.90;;;;;;4974792;28;20724;-66
2022/01/15 03:23:56;;;;;;;28.10;21.37;;;0.10;99.90;;;;;;4974901;28;20224;-66
2022/01/15 03:26:21;;;;;;;27.17;22.77;;;0.10;99.90;;;;;;4974546;28;20212;-66
2022/01/15 03:28:47;;;;;;;30.30;22.40;;;0.10;99.90;;;;;;4973367;28;20203;-66
2022/01/15 03:31:13;;;;;;;29.83;21.00;;;0.00;99.90;;;;;;4974526;28;20681;-66
2022/01/15 03:33:39;;;;;;;28.90;22.60;;;0.00;99.90;;;;;;4974467;28;20215;-66
2022/01/15 03:36:05;;;;;;;30.73;22.20;;;0.00;99.90;;;;;;4974354;28;20637;-65
2022/01/15 03:38:30;;;;;;;33.50;22.17;;;0.10;99.90;;;;;;4973871;28;20519;-65
2022/01/15 03:40:56;;;;;;;30.13;22.10;;;0.00;99.90;;;;;;4974941;28;20204;-65
2022/01/15 03:43:22;;;;;;;33.07;22.80;;;-0.10;99.90;;;;;;4974563;28;20713;-65
2022/01/15 03:45:47;;;;;;;24.37;19.00;;;-0.10;99.90;;;;;;4974322;28;20188;-65
2022/01/15 03:48:13;;;;;;;30.97;20.87;;;-0.10;99.90;;;;;;4974233;28;20436;-65
2022/01/15 03:50:38;;;;;;;30.37;22.63;;;-0.10;99.90;;;;;;4973178;28;20578;-65
2022/01/15 03:53:04;;;;;;;27.07;20.10;;;-0.10;99.90;;;;;;4973300;28;20184;-65
2022/01/15 03:55:30;;;;;;;31.80;22.43;;;-0.10;99.90;;;;;;4974216;28;20661;-65
2022/01/15 03:57:57;;;;;;;32.07;21.47;;;-0.10;99.90;;;;;;4974660;28;20172;-65
2022/01/15 04:00:24;;;;;;;25.90;21.53;;;-0.10;99.90;;;;;;4974120;28;20294;-66
2022/01/15 04:02:51;;;;;;;26.00;20.43;;;-0.10;99.90;;;;;;4974343;28;20435;-68
2022/01/15 04:05:17;;;;;;;29.47;21.40;;;-0.10;99.90;;;;;;4973822;28;20446;-68
2022/01/15 04:07:43;;;;;;;28.80;21.53;;;0.00;99.90;;;;;;4974249;28;20858;-66
2022/01/15 04:10:10;;;;;;;29.13;20.50;;;0.00;99.90;;;;;;4973704;28;20431;-66
2022/01/15 04:12:37;;;;;;;32.60;21.40;;;0.00;99.90;;;;;;4972775;28;20260;-66
2022/01/15 04:15:03;;;;;;;28.50;22.10;;;-0.10;99.90;;;;;;4972860;28;20458;-68
2022/01/15 04:17:29;;;;;;;30.67;21.20;;;-0.10;99.90;;;;;;4973834;28;20905;-66
2022/01/15 04:19:55;;;;;;;31.47;23.07;;;-0.10;99.90;;;;;;4973869;28;20471;-68
2022/01/15 04:22:21;;;;;;;40.53;23.50;;;-0.20;99.90;;;;;;4973555;28;20212;-65
2022/01/15 04:24:46;;;;;;;25.27;21.17;;;-0.20;99.90;;;;;;4973580;28;20869;-68
2022/01/15 04:27:12;;;;;;;23.30;18.33;;;-0.20;99.90;;;;;;4972423;28;20304;-66
2022/01/15 04:29:37;;;;;;;28.37;21.13;;;-0.20;99.90;;;;;;4964030;28;20193;-66
2022/01/15 04:32:04;;;;;;;27.40;21.83;;;-0.20;99.90;;;;;;4970992;28;20299;-68
2022/01/15 04:34:30;;;;;;;28.93;21.90;;;-0.10;99.90;;;;;;4973387;28;20207;-66
2022/01/15 04:37:03;;;;;;;30.67;22.50;;;-0.20;99.90;;;;;;4973477;28;20458;-65
2022/01/15 04:39:29;;;;;;;28.90;21.87;;;-0.20;99.90;;;;;;4973348;28;20497;-67
2022/01/15 04:41:55;;;;;;;32.53;22.03;;;-0.40;99.90;;;;;;4973286;28;20452;-66
2022/01/15 04:44:20;;;;;;;25.40;20.40;;;-0.30;99.90;;;;;;4972580;28;20707;-66
2022/01/15 04:46:46;;;;;;;30.13;21.90;;;-0.40;99.90;;;;;;4973063;28;20176;-69
2022/01/15 04:49:11;;;;;;;23.60;20.27;;;-0.40;99.90;;;;;;4973194;28;20168;-66
2022/01/15 04:51:37;;;;;;;27.00;22.30;;;-0.40;99.90;;;;;;4973502;28;20203;-69
2022/01/15 04:54:04;;;;;;;26.90;21.83;;;-0.40;99.90;;;;;;4973136;28;20172;-65
2022/01/15 04:56:29;;;;;;;23.93;19.77;;;-0.40;99.90;;;;;;4972713;28;20733;-66
2022/01/15 04:58:55;;;;;;;28.47;21.00;;;-0.50;99.90;;;;;;4973076;28;20428;-66
2022/01/15 05:01:20;;;;;;;25.33;21.10;;;-0.50;99.90;;;;;;4973014;28;20206;-66
2022/01/15 05:03:46;;;;;;;24.80;17.87;;;-0.50;99.90;;;;;;4973070;28;20227;-67
2022/01/15 05:06:12;;;;;;;26.77;19.20;;;-0.50;99.90;;;;;;4972815;28;20737;-66
2022/01/15 05:08:39;;;;;;;22.90;18.90;;;-0.50;99.90;;;;;;4972998;28;20207;-69
2022/01/15 05:11:13;;;;;;;23.97;20.07;;;-0.50;99.90;;;;;;4973037;28;20196;-66
2022/01/15 05:13:39;;;;;;;27.77;20.97;;;-0.40;99.90;;;;;;4972990;28;20881;-69
2022/01/15 05:16:05;;;;;;;25.70;21.97;;;-0.40;99.90;;;;;;4972629;28;20470;-67
2022/01/15 05:18:31;;;;;;;27.07;21.60;;;-0.40;99.90;;;;;;4972569;28;20957;-68
2022/01/15 05:20:57;;;;;;;24.83;19.27;;;-0.40;99.90;;;;;;4972811;28;20498;-68
2022/01/15 05:23:23;;;;;;;29.60;20.80;;;-0.30;99.90;;;;;;4973128;28;20547;-68
2022/01/15 05:25:48;;;;;;;27.73;20.43;;;-0.30;99.90;;;;;;4972419;28;20471;-68
2022/01/15 05:28:14;;;;;;;28.70;20.00;;;-0.40;99.90;;;;;;4972763;28;20208;-68
2022/01/15 05:30:39;;;;;;;25.77;18.97;;;-0.40;99.90;;;;;;4972412;28;20195;-69
2022/01/15 05:33:05;;;;;;;27.40;19.70;;;-0.50;99.90;;;;;;4973000;28;20227;-67
2022/01/15 05:35:31;;;;;;;29.10;20.80;;;-0.60;99.90;;;;;;4972296;28;20650;-69
2022/01/15 05:37:58;;;;;;;23.30;19.30;;;-0.60;99.90;;;;;;4972578;28;20710;-68
2022/01/15 05:40:24;;;;;;;24.70;19.60;;;-0.60;99.90;;;;;;4972289;28;20586;-68
2022/01/15 05:42:51;;;;;;;27.97;19.50;;;-0.50;99.90;;;;;;4972551;28;20497;-68
2022/01/15 05:45:17;;;;;;;27.67;19.83;;;-0.50;99.90;;;;;;4972215;28;20941;-68
2022/01/15 05:47:43;;;;;;;25.70;20.57;;;-0.50;99.90;;;;;;4972718;28;20438;-68
2022/01/15 05:50:09;;;;;;;28.87;21.40;;;-0.50;99.90;;;;;;4972718;28;20211;-68
2022/01/15 05:52:35;;;;;;;26.40;21.00;;;-0.50;99.90;;;;;;4972112;28;20177;-67
2022/01/15 05:55:00;;;;;;;25.27;19.40;;;-0.50;99.90;;;;;;4972107;28;20462;-69
2022/01/15 05:57:26;;;;;;;30.27;20.33;;;-0.50;99.90;;;;;;4972295;28;20180;-69
2022/01/15 05:59:52;;;;;;;24.63;19.73;;;-0.50;99.90;;;;;;4972015;28;20265;-68
2022/01/15 06:02:21;;;;;;;27.10;19.60;;;-0.50;99.90;;;;;;4974063;28;20212;-68
2022/01/15 06:04:47;;;;;;;24.50;19.30;;;-0.60;99.90;;;;;;4976085;28;20184;-68
2022/01/15 06:07:12;;;;;;;26.27;19.30;;;-0.70;99.90;;;;;;4975845;28;20442;-68
2022/01/15 06:09:38;;;;;;;24.60;19.83;;;-0.70;99.90;;;;;;4976463;28;20898;-68
2022/01/15 06:12:04;;;;;;;25.10;19.73;;;-0.70;99.90;;;;;;4976282;28;20265;-68
2022/01/15 06:14:30;;;;;;;23.73;19.53;;;-0.70;99.90;;;;;;4976323;28;21065;-67
2022/01/15 06:16:56;;;;;;;27.17;19.57;;;-0.70;99.90;;;;;;4975588;28;20168;-67
2022/01/15 06:19:22;;;;;;;27.90;19.00;;;-0.70;99.90;;;;;;4971476;28;20432;-68
2022/01/15 06:21:48;;;;;;;25.13;18.73;;;-0.70;99.90;;;;;;4975898;28;20466;-68
2022/01/15 06:24:13;;;;;;;26.80;18.97;;;-0.80;99.90;;;;;;4976123;28;20180;-68
2022/01/15 06:26:39;;;;;;;21.40;19.10;;;-0.80;99.90;;;;;;4975604;28;20188;-68
2022/01/15 06:29:04;;;;;;;26.43;20.37;;;-0.80;99.90;;;;;;4975876;28;20196;-68
2022/01/15 06:31:31;;;;;;;23.93;19.40;;;-0.80;99.90;;;;;;4975919;28;20196;-68
2022/01/15 06:33:57;;;;;;;25.53;19.60;;;-0.80;99.90;;;;;;4975815;28;20203;-69
2022/01/15 06:36:23;;;;;;;24.53;18.90;;;-0.80;99.90;;;;;;4975224;28;20467;-67
2022/01/15 06:38:48;;;;;;;24.80;20.27;;;-0.70;99.90;;;;;;4975712;28;20435;-69
2022/01/15 06:41:14;;;;;;;25.60;19.50;;;-0.70;99.90;;;;;;4975634;28;20680;-68
2022/01/15 06:43:40;;;;;;;22.67;17.93;;;-0.70;99.90;;;;;;4975556;28;20176;-68
2022/01/15 06:46:05;;;;;;;26.63;19.77;;;-0.70;99.90;;;;;;4975279;28;20239;-67
2022/01/15 06:48:31;;;;;;;24.07;18.50;;;-0.70;99.90;;;;;;4975454;28;20188;-68
2022/01/15 06:50:57;;;;;;;26.73;20.37;;;-0.70;99.90;;;;;;4975485;28;20199;-68
2022/01/15 06:53:22;;;;;;;22.87;19.33;;;-0.80;99.90;;;;;;4974305;28;20204;-68
2022/01/15 06:55:51;;;;;;;21.43;17.80;;;-0.80;99.90;;;;;;4969326;28;20515;-67
2022/01/15 06:58:17;;;;;;;23.70;19.37;;;-0.80;99.90;;;;;;4970729;28;20172;-67
2022/01/15 07:00:43;;;;;;;27.30;18.73;;;-0.80;99.90;;;;;;4973834;28;21067;-68
2022/01/15 07:03:08;;;;;;;29.17;20.93;;;-0.80;99.90;;;;;;4975009;28;20176;-68
2022/01/15 07:05:34;;;;;;;24.43;19.67;;;-0.80;99.90;;;;;;4975243;28;20428;-67
2022/01/15 07:07:59;;;;;;;26.30;19.17;;;-0.70;99.90;;;;;;4974259;28;20541;-68
2022/01/15 07:10:25;;;;;;;31.43;21.27;;;-0.80;99.90;;;;;;4969818;28;20704;-68
2022/01/15 07:12:52;;;;;;;27.40;20.80;;;-0.80;99.90;;;;;;4961461;28;20181;-67
2022/01/15 07:15:17;;;;;;;24.13;18.57;;;-0.70;99.90;;;;;;4955412;28;20754;-68
2022/01/15 07:17:44;;;;;;;28.70;19.10;;;-0.70;99.90;;;;;;4972753;28;20427;-68
2022/01/15 07:20:11;;;;;;;23.70;19.20;;;-0.60;99.90;;;;;;4976318;28;20231;-68
2022/01/15 07:22:39;;;;;;;21.87;18.30;;;-0.60;99.90;;;;;;4991407;28;20431;-68
2022/01/15 07:25:05;;;;;;;23.20;19.07;;;-0.60;99.90;;;;;;4980119;28;20530;-68
2022/01/15 07:27:31;;;;;;;24.23;18.73;;;-0.60;99.90;;;;;;4960557;28;20516;-68
2022/01/15 07:29:56;;;;;;;19.40;17.40;;;-0.60;99.90;;;;;;4972907;28;20466;-68
2022/01/15 07:32:22;;;;;;;24.23;19.30;;;-0.50;99.90;;;;;;4982068;28;20198;-67
2022/01/15 07:34:47;;;;;;;26.63;20.13;;;-0.40;99.90;;;;;;4979538;28;20206;-67
2022/01/15 07:37:14;;;;;;;27.10;20.40;;;-0.40;99.90;;;;;;4974715;28;20526;-68
2022/01/15 07:39:41;;;;;;;28.90;20.03;;;-0.40;99.90;;;;;;4974629;28;20555;-68
2022/01/15 07:42:08;;;;;;;22.57;17.10;;;-0.30;99.90;;;;;;4975439;28;21328;-67
2022/01/15 07:44:33;;;;;;;23.70;19.40;;;-0.30;99.90;;;;;;4994289;28;20418;-68
2022/01/15 07:46:59;;;;;;;25.93;20.27;;;-0.20;99.90;;;;;;4978216;28;20511;-68
2022/01/15 07:49:24;;;;;;;23.27;20.30;;;-0.20;99.90;;;;;;4975857;28;20256;-68
2022/01/15 07:51:50;;;;;;;28.73;19.17;;;0.00;99.90;;;;;;4983759;28;20724;-68
2022/01/15 07:54:16;;;;;;;23.63;19.37;;;0.50;99.90;;;;;;4974602;28;20634;-68
2022/01/15 07:56:41;;;;;;;20.53;17.67;;;1.20;99.90;;;;;;4973142;28;20208;-68
2022/01/15 07:59:07;;;;;;;23.07;18.30;;;2.00;99.90;;;;;;4967088;28;20179;-69
2022/01/15 08:01:32;;;;;;;24.97;19.03;;;2.90;99.90;;;;;;4976400;28;20840;-68
2022/01/15 08:03:58;;;;;;;23.67;19.93;;;3.40;99.90;;;;;;4974234;28;20184;-68
2022/01/15 08:06:24;;;;;;;21.70;17.67;;;4.10;99.90;;;;;;4973648;28;20191;-68
2022/01/15 08:08:49;;;;;;;23.53;18.40;;;4.70;99.90;;;;;;4974485;28;20263;-68
2022/01/15 08:11:15;;;;;;;21.73;19.03;;;5.40;99.90;;;;;;4985132;28;20202;-66
2022/01/15 08:13:40;;;;;;;22.77;20.03;;;6.40;99.90;;;;;;4968595;28;20623;-69
2022/01/15 08:16:06;;;;;;;23.10;19.20;;;7.20;99.90;;;;;;4976199;28;20697;-68
2022/01/15 08:18:32;;;;;;;22.40;20.07;;;8.00;99.90;;;;;;4975708;28;20183;-69
2022/01/15 08:20:58;;;;;;;22.23;19.13;;;8.80;99.90;;;;;;4971150;28;20232;-69
2022/01/15 08:23:23;;;;;;;20.87;18.43;;;9.40;99.90;;;;;;4973770;28;20431;-66
2022/01/15 08:25:49;;;;;;;22.70;18.27;;;9.60;99.90;;;;;;4973129;28;20172;-65
2022/01/15 08:28:16;;;;;;;20.60;17.87;;;10.30;99.90;;;;;;4984680;28;20179;-66
2022/01/15 08:30:41;;;;;;;19.80;17.73;;;10.90;99.90;;;;;;4977600;28;20230;-66
2022/01/15 08:33:07;;;;;;;21.80;19.63;;;11.50;98.80;;;;;;4973685;28;21048;-66
2022/01/15 08:35:33;;;;;;;24.03;20.77;;;12.20;96.80;;;;;;4972506;28;20255;-66
2022/01/15 08:38:01;;;;;;;21.03;19.07;;;12.40;94.60;;;;;;4973475;28;20169;-66
2022/01/15 08:40:28;;;;;;;23.03;20.87;;;12.70;93.80;;;;;;4967206;28;20201;-67
2022/01/15 08:42:53;;;;;;;27.40;24.60;;;12.50;93.50;;;;;;4971491;28;20431;-66
2022/01/15 08:45:19;;;;;;;26.40;23.70;;;12.90;91.80;;;;;;4971950;28;20450;-66
2022/01/15 08:47:45;;;;;;;27.87;24.87;;;12.90;90.70;;;;;;4972915;28;20203;-66
2022/01/15 08:50:13;;;;;;;27.13;24.47;;;12.70;91.20;;;;;;4976514;28;20471;-66
2022/01/15 08:52:39;;;;;;;29.23;26.13;;;12.70;91.00;;;;;;4973368;28;20180;-66
2022/01/15 08:55:07;;;;;;;28.50;25.57;;;13.20;89.70;;;;;;4970614;28;20532;-66
2022/01/15 08:57:33;;;;;;;27.27;24.57;;;13.90;87.90;;;;;;4967584;28;20502;-66
2022/01/15 08:59:59;;;;;;;28.10;25.50;;;14.70;85.60;;;;;;4967381;28;20822;-66
2022/01/15 09:02:24;;;;;;;28.20;25.33;;;15.00;83.00;;;;;;4966284;28;20447;-65
2022/01/15 09:04:50;;;;;;;28.80;25.97;;;15.30;80.40;;;;;;4960722;28;20471;-66
2022/01/15 09:07:15;;;;;;;32.20;29.20;;;15.90;76.40;;;;;;4971692;28;20172;-65
2022/01/15 09:09:41;;;;;;;34.00;30.90;;;16.40;72.50;;;;;;4972895;28;20189;-65
2022/01/15 09:12:07;;;;;;;32.83;29.73;;;15.80;72.20;;;;;;4973034;28;20207;-65
2022/01/15 09:14:33;;;;;;;32.10;29.00;;;15.80;72.70;;;;;;4972692;28;20252;-65
2022/01/15 09:16:58;;;;;;;29.40;26.70;;;16.50;71.70;;;;;;4972893;28;20909;-65
2022/01/15 09:19:24;;;;;;;31.87;28.77;;;16.80;69.90;;;;;;4972477;28;20177;-65
2022/01/15 09:21:50;;;;;;;33.63;30.47;;;17.20;68.10;;;;;;4972682;28;20569;-65
2022/01/15 09:24:15;;;;;;;33.30;30.30;;;18.00;65.20;;;;;;4972800;28;20195;-65
2022/01/15 09:31:58;;;;;;;39.23;35.27;;;18.80;59.90;;;;;;4973040;28;20486;-65
2022/01/15 09:34:24;;;;;;;30.73;27.80;;;19.40;58.40;;;;;;4972517;28;20443;-65
2022/01/15 09:36:49;;;;;;;30.93;27.70;;;19.30;57.40;;;;;;4973355;28;20901;-66
2022/01/15 09:39:16;;;;;;;35.80;32.37;;;19.00;57.40;;;;;;4976608;28;20611;-65
2022/01/15 09:41:48;;;;;;;33.57;30.20;;;19.30;57.10;;;;;;4976586;28;20192;-65
2022/01/15 09:44:16;;;;;;;35.60;31.77;;;19.10;56.70;;;;;;4976458;28;20435;-65
2022/01/15 09:46:42;;;;;;;38.77;34.57;;;18.50;58.30;;;;;;4975800;28;20797;-65
2022/01/15 09:49:10;;;;;;;36.83;33.37;;;19.20;57.50;;;;;;4976115;28;20442;-65
2022/01/15 09:51:36;;;;;;;33.80;30.70;;;19.70;56.20;;;;;;4976240;28;20498;-65
2022/01/15 09:54:02;;;;;;;30.70;27.57;;;19.40;56.00;;;;;;4976647;28;20470;-65
2022/01/15 09:56:28;;;;;;;28.30;25.70;;;19.30;56.00;;;;;;4975705;28;20588;-65
2022/01/15 09:58:54;;;;;;;25.73;23.57;;;19.90;55.80;;;;;;4976703;28;20502;-66
2022/01/15 10:01:20;;;;;;;27.10;24.87;;;20.50;54.00;;;;;;4976194;28;20251;-65
2022/01/15 10:03:45;;;;;;;26.13;24.00;;;21.10;53.10;;;;;;4976166;28;20439;-66
2022/01/15 10:06:11;;;;;;;25.20;23.00;;;20.80;52.50;;;;;;4975794;28;20427;-66
2022/01/15 10:08:37;;;;;;;24.57;22.50;;;20.50;52.40;;;;;;4975555;28;20242;-65
2022/01/15 10:11:09;;;;;;;22.77;20.87;;;20.80;52.40;;;;;;4975763;28;20274;-66
2022/01/15 10:13:42;;;;;;;23.20;21.17;;;21.70;51.20;;;;;;4975410;28;20443;-65
2022/01/15 10:16:08;;;;;;;22.97;21.00;;;22.30;49.80;;;;;;4975791;28;20520;-66
2022/01/15 10:18:42;;;;;;;22.87;21.10;;;22.40;49.30;;;;;;4975948;28;20518;-66
2022/01/15 10:21:26;;;;;;;22.83;20.97;;;22.30;48.60;;;;;;4976023;28;20254;-65
2022/01/15 10:24:00;;;;;;;24.47;22.47;;;22.00;48.40;;;;;;4975484;28;20440;-66
2022/01/15 10:26:36;;;;;;;23.57;21.53;;;21.70;48.90;;;;;;4975839;28;20521;-65
2022/01/15 10:29:07;;;;;;;24.93;22.80;;;22.00;47.60;;;;;;4975730;28;20475;-65
2022/01/15 10:31:44;;;;;;;23.80;21.80;;;22.20;47.30;;;;;;4974293;28;20980;-65
2022/01/15 10:34:33;;;;;;;23.33;21.53;;;22.30;46.60;;;;;;4976662;28;20438;-66
2022/01/15 10:37:07;;;;;;;23.40;21.30;;;22.00;46.80;;;;;;4973235;28;20463;-66
2022/01/15 10:39:32;;;;;;;24.73;22.43;;;21.50;47.20;;;;;;4974601;28;20450;-65
2022/01/15 10:41:58;;;;;;;23.43;21.33;;;22.30;46.80;;;;;;4975596;28;20972;-67
2022/01/15 10:44:35;;;;;;;22.77;20.67;;;22.80;45.60;;;;;;4974901;28;20172;-67
2022/01/15 10:47:05;;;;;;;22.67;20.67;;;22.80;45.30;;;;;;4962325;28;20219;-66
2022/01/15 10:49:32;;;;;;;21.93;20.30;;;23.40;44.80;;;;;;4974025;28;20458;-65
2022/01/15 10:52:07;;;;;;;20.40;18.80;;;23.90;43.60;;;;;;4971887;28;20455;-65
2022/01/15 10:54:35;;;;;;;22.90;20.93;;;23.60;43.80;;;;;;4975198;28;20450;-65
2022/01/15 10:57:10;;;;;;;22.00;20.20;;;23.30;43.90;;;;;;4964431;28;20847;-66
2022/01/15 10:59:36;;;;;;;23.53;21.53;;;23.80;43.30;;;;;;4975195;28;20441;-65
2022/01/15 11:02:20;;;;;;;21.40;19.67;;;24.10;42.40;;;;;;4974673;28;20550;-65
2022/01/15 11:04:46;;;;;;;21.80;20.00;;;23.30;43.10;;;;;;4975181;28;20506;-66
2022/01/15 11:07:17;;;;;;;22.13;20.53;;;23.50;43.40;;;;;;4974475;28;20443;-65
2022/01/15 11:09:44;;;;;;;29.27;26.57;;;23.80;42.90;;;;;;4974547;28;20181;-65
2022/01/15 11:12:11;;;;;;;23.10;21.00;;;24.00;42.30;;;;;;4975147;28;20463;-65
2022/01/15 11:14:37;;;;;;;22.50;20.63;;;23.90;42.50;;;;;;4974796;28;20472;-65
2022/01/15 11:17:04;;;;;;;23.53;21.63;;;24.70;41.80;;;;;;4974642;28;20435;-65
2022/01/15 11:19:31;;;;;;;22.53;20.73;;;25.00;40.70;;;;;;4974972;28;20438;-65
2022/01/15 11:22:01;;;;;;;23.77;21.90;;;25.00;40.80;;;;;;4975116;28;20459;-65
2022/01/15 11:24:27;;;;;;;23.13;21.10;;;25.00;40.60;;;;;;4974418;28;20555;-65
2022/01/15 11:26:57;;;;;;;25.10;22.90;;;25.60;40.30;;;;;;4972068;28;20523;-65
2022/01/15 11:29:24;;;;;;;24.37;22.33;;;25.20;39.60;;;;;;4974265;28;20184;-65
2022/01/15 11:31:53;;;;;;;24.57;22.57;;;24.80;39.80;;;;;;4978284;28;20444;-65
2022/01/15 11:34:20;;;;;;;23.90;21.90;;;24.90;40.30;;;;;;4976143;28;20501;-65
2022/01/15 11:36:47;;;;;;;26.00;23.67;;;25.20;39.30;;;;;;4973965;28;20470;-66
2022/01/15 11:39:18;;;;;;;25.83;23.83;;;25.50;39.20;;;;;;4974119;28;20438;-65
2022/01/15 11:41:46;;;;;;;23.50;21.30;;;25.70;38.50;;;;;;4974077;28;20538;-65
2022/01/15 11:44:36;;;;;;;24.30;22.40;;;25.80;38.70;;;;;;4974005;28;20436;-65
2022/01/15 11:47:17;;;;;;;22.77;20.87;;;25.70;38.30;;;;;;4973732;28;20526;-66
2022/01/15 11:49:49;;;;;;;24.00;21.57;;;25.70;38.50;;;;;;4974262;28;20522;-65
2022/01/15 11:52:14;;;;;;;25.63;23.37;;;26.20;38.20;;;;;;4973368;28;21084;-65
2022/01/15 11:55:05;;;;;;;25.47;23.50;;;26.00;37.20;;;;;;4977437;28;20522;-65
2022/01/15 11:57:43;;;;;;;25.77;23.43;;;25.80;37.80;;;;;;4974458;28;20200;-65
2022/01/15 12:00:30;;;;;;;25.77;23.60;;;26.30;37.50;;;;;;4973072;28;20431;-65
2022/01/15 12:03:07;;;;;;;26.23;24.23;;;27.20;36.60;;;;;;4971397;28;20519;-65
2022/01/15 12:05:35;;;;;;;23.50;21.60;;;27.70;36.30;;;;;;4967109;28;20795;-65
2022/01/15 12:08:00;;;;;;;26.83;24.63;;;28.60;35.40;;;;;;4973654;28;20462;-65
2022/01/15 12:10:42;;;;;;;24.37;22.40;;;28.30;35.10;;;;;;4972592;28;20550;-66
2022/01/15 12:13:25;;;;;;;25.00;23.00;;;28.00;34.30;;;;;;4972074;28;20192;-65
2022/01/15 12:16:28;;;;;;;26.27;24.20;;;28.10;34.60;;;;;;4966985;28;20820;-65
2022/01/15 12:18:57;;;;;;;26.83;24.63;;;28.50;34.50;;;;;;4961027;28;20447;-65
2022/01/15 12:21:45;;;;;;;24.77;22.67;;;27.80;34.10;;;;;;4974008;28;20987;-66
2022/01/15 12:24:44;;;;;;;29.27;26.67;;;27.30;34.90;;;;;;4967512;28;20493;-65
2022/01/15 12:27:12;;;;;;;26.50;24.30;;;27.80;34.30;;;;;;4962230;28;20467;-65
2022/01/15 12:29:39;;;;;;;25.23;23.00;;;27.90;34.00;;;;;;4973771;28;20435;-65
2022/01/15 12:32:05;;;;;;;26.13;24.13;;;27.30;34.10;;;;;;4973623;28;20483;-65
2022/01/15 12:34:31;;;;;;;26.17;24.10;;;27.70;34.20;;;;;;4973562;28;20944;-66
2022/01/15 12:36:57;;;;;;;25.63;23.53;;;27.10;34.20;;;;;;4972960;28;20448;-66
2022/01/15 12:39:37;;;;;;;25.80;23.67;;;26.60;34.70;;;;;;4973662;28;20195;-66
2022/01/15 12:42:06;;;;;;;24.50;22.50;;;26.00;34.80;;;;;;4973499;28;20215;-65
2022/01/15 12:44:40;;;;;;;26.00;23.80;;;25.90;35.20;;;;;;4973474;28;20435;-65
2022/01/15 12:47:06;;;;;;;23.23;21.33;;;26.20;35.20;;;;;;4973321;28;20490;-66
2022/01/15 12:49:39;;;;;;;24.57;22.63;;;26.20;35.20;;;;;;4973855;28;20788;-66
2022/01/15 12:52:25;;;;;;;24.37;22.27;;;25.90;35.10;;;;;;4973463;28;20200;-65
2022/01/15 12:54:53;;;;;;;24.30;22.40;;;25.70;35.50;;;;;;4954084;29;20503;-66
2022/01/15 12:57:41;;;;;;;24.50;22.40;;;25.50;35.60;;;;;;4968559;28;20801;-66
2022/01/15 13:00:28;;;;;;;23.60;21.70;;;25.40;35.50;;;;;;4973330;28;20432;-66